Time;durP1;ratioP1;P1;durP2;ratioP2;P2;SDS_P1;SDS_P2;PMS_P1;PMS_P2;Temp;Humidity;BMP_temperature;BMP_pressure;BME280_temperature;BME280_humidity;BME280_pressure;Samples;Min_cycle;Max_cycle;Signal;HPM_P1;HPM_P2
2023/08/18 00:00:23;;;;;;;7.10;3.40;;;;;;;;;;5091496;28;20227;-72
2023/08/18 00:02:50;;;;;;;5.10;3.55;;;;;;;;;;5091847;28;20219;-72
2023/08/18 00:05:17;;;;;;;6.90;3.50;;;;;;;;;;5095052;28;20207;-73
2023/08/18 00:07:43;;;;;;;3.85;3.53;;;;;;;;;;5094695;28;20199;-72
2023/08/18 00:10:11;;;;;;;3.75;3.40;;;;;;;;;;5095001;28;20279;-73
2023/08/18 00:12:37;;;;;;;4.88;3.80;;;;;;;;;;5094571;28;20223;-72
2023/08/18 00:15:04;;;;;;;4.43;3.53;;;;;;;;;;5094909;28;20200;-72
2023/08/18 00:17:30;;;;;;;5.43;3.60;;;;;;;;;;5094443;28;20222;-72
2023/08/18 00:19:57;;;;;;;6.60;3.65;;;;;;;;;;5094665;28;20195;-72
2023/08/18 00:22:23;;;;;;;7.35;3.53;;;;;;;;;;5094313;28;20215;-72
2023/08/18 00:24:49;;;;;;;5.07;3.35;;;;;;;;;;5094663;28;20202;-72
2023/08/18 00:27:17;;;;;;;4.63;3.42;;;;;;;;;;5094476;28;20663;-72
2023/08/18 00:29:43;;;;;;;4.75;3.25;;;;;;;;;;5094601;28;20200;-72
2023/08/18 00:32:10;;;;;;;5.82;3.83;;;;;;;;;;5094030;28;20226;-72
2023/08/18 00:34:36;;;;;;;4.65;3.72;;;;;;;;;;5094158;28;20199;-72
2023/08/18 00:37:02;;;;;;;3.95;3.60;;;;;;;;;;5094234;28;20572;-72
2023/08/18 00:39:28;;;;;;;9.75;3.70;;;;;;;;;;5094302;28;20187;-72
2023/08/18 00:41:55;;;;;;;5.65;3.47;;;;;;;;;;5094038;28;20216;-72
2023/08/18 00:44:22;;;;;;;5.93;4.20;;;;;;;;;;5094327;28;20659;-72
2023/08/18 00:46:48;;;;;;;5.15;3.65;;;;;;;;;;5094118;28;20207;-72
2023/08/18 00:49:17;;;;;;;4.28;3.58;;;;;;;;;;5094151;28;20203;-72
2023/08/18 00:51:43;;;;;;;5.47;4.25;;;;;;;;;;5093826;28;20200;-72
2023/08/18 00:54:10;;;;;;;5.00;3.92;;;;;;;;;;5094363;28;20203;-72
2023/08/18 00:56:36;;;;;;;5.25;3.80;;;;;;;;;;5094071;28;20686;-73
2023/08/18 00:59:05;;;;;;;4.30;3.92;;;;;;;;;;5094095;28;20223;-73
2023/08/18 01:01:33;;;;;;;8.35;4.30;;;;;;;;;;5093435;28;20287;-72
2023/08/18 01:04:00;;;;;;;4.85;4.35;;;;;;;;;;5093683;28;20245;-72
2023/08/18 01:06:26;;;;;;;7.70;3.92;;;;;;;;;;5093966;28;20192;-72
2023/08/18 01:08:52;;;;;;;6.07;4.18;;;;;;;;;;5093778;28;20569;-73
2023/08/18 01:11:21;;;;;;;5.85;3.97;;;;;;;;;;5093728;28;20550;-73
2023/08/18 01:13:50;;;;;;;6.50;4.22;;;;;;;;;;5093400;28;20836;-73
2023/08/18 01:16:21;;;;;;;6.55;4.18;;;;;;;;;;5093540;28;20199;-73
2023/08/18 01:18:49;;;;;;;9.00;4.00;;;;;;;;;;5093619;28;20220;-73
2023/08/18 01:21:17;;;;;;;4.43;3.88;;;;;;;;;;5093953;28;20196;-73
2023/08/18 01:23:45;;;;;;;5.63;3.58;;;;;;;;;;5093315;28;20640;-73
2023/08/18 01:26:11;;;;;;;7.03;3.92;;;;;;;;;;5093794;28;20199;-72
2023/08/18 01:28:37;;;;;;;4.32;3.90;;;;;;;;;;5093287;28;20192;-72
2023/08/18 01:31:07;;;;;;;8.90;4.25;;;;;;;;;;5093390;28;20192;-72
2023/08/18 01:33:36;;;;;;;5.40;4.10;;;;;;;;;;5092970;28;20239;-72
2023/08/18 01:36:04;;;;;;;3.97;3.58;;;;;;;;;;5093201;28;20195;-72
2023/08/18 01:38:31;;;;;;;5.57;3.42;;;;;;;;;;5093051;28;20218;-72
2023/08/18 01:41:00;;;;;;;8.15;4.05;;;;;;;;;;5093088;28;20234;-72
2023/08/18 01:43:27;;;;;;;7.45;3.47;;;;;;;;;;5092605;28;20226;-72
2023/08/18 01:45:53;;;;;;;4.55;3.83;;;;;;;;;;5093266;28;20196;-73
2023/08/18 01:48:20;;;;;;;3.60;3.35;;;;;;;;;;5092999;28;20199;-72
2023/08/18 01:50:46;;;;;;;4.63;3.58;;;;;;;;;;5092645;28;20668;-72
2023/08/18 01:53:12;;;;;;;5.93;3.47;;;;;;;;;;5092548;28;20215;-72
2023/08/18 01:55:39;;;;;;;4.25;3.65;;;;;;;;;;5092647;28;20196;-72
2023/08/18 01:58:06;;;;;;;4.20;3.80;;;;;;;;;;5092618;28;20623;-72
2023/08/18 02:00:32;;;;;;;8.18;3.80;;;;;;;;;;5092780;28;20191;-72
2023/08/18 02:02:59;;;;;;;4.47;4.10;;;;;;;;;;5092370;28;20218;-72
2023/08/18 02:05:25;;;;;;;4.43;3.72;;;;;;;;;;5092685;28;20196;-72
2023/08/18 02:07:52;;;;;;;5.85;3.70;;;;;;;;;;5092454;28;20680;-72
2023/08/18 02:10:18;;;;;;;6.18;3.70;;;;;;;;;;5092675;28;20198;-72
2023/08/18 02:12:44;;;;;;;5.22;3.70;;;;;;;;;;5091985;28;20223;-72
2023/08/18 02:15:12;;;;;;;3.90;3.67;;;;;;;;;;5092660;28;20207;-72
2023/08/18 02:17:38;;;;;;;5.22;3.70;;;;;;;;;;5092118;28;20199;-72
2023/08/18 02:20:08;;;;;;;5.88;4.28;;;;;;;;;;5092459;28;20196;-72
2023/08/18 02:22:35;;;;;;;5.65;3.92;;;;;;;;;;5091909;28;20224;-72
2023/08/18 02:25:01;;;;;;;5.03;3.95;;;;;;;;;;5092001;28;20196;-72
2023/08/18 02:27:27;;;;;;;4.07;3.10;;;;;;;;;;5091971;28;20204;-72
2023/08/18 02:29:53;;;;;;;6.13;3.78;;;;;;;;;;5092275;28;20196;-72
2023/08/18 02:32:21;;;;;;;5.60;3.22;;;;;;;;;;5091868;28;20231;-72
2023/08/18 02:34:47;;;;;;;6.50;3.45;;;;;;;;;;5092320;28;20199;-73
2023/08/18 02:37:14;;;;;;;5.32;3.40;;;;;;;;;;5092218;28;20196;-73
2023/08/18 02:39:40;;;;;;;5.88;3.20;;;;;;;;;;5091781;28;20710;-73
2023/08/18 02:42:06;;;;;;;7.78;3.55;;;;;;;;;;5091687;28;20219;-73
2023/08/18 02:44:33;;;;;;;6.88;3.60;;;;;;;;;;5091927;28;20667;-73
2023/08/18 02:46:59;;;;;;;6.18;3.63;;;;;;;;;;5075658;28;20203;-72
2023/08/18 02:49:26;;;;;;;5.10;3.67;;;;;;;;;;5091929;28;20192;-73
2023/08/18 02:51:53;;;;;;;8.52;4.05;;;;;;;;;;5091377;28;20227;-73
2023/08/18 02:54:19;;;;;;;4.10;3.80;;;;;;;;;;5091756;28;20293;-73
2023/08/18 02:56:45;;;;;;;7.20;3.65;;;;;;;;;;5091919;28;20199;-73
2023/08/18 02:59:12;;;;;;;5.95;3.70;;;;;;;;;;5091891;28;20239;-73
2023/08/18 03:01:38;;;;;;;9.00;3.65;;;;;;;;;;5091452;28;20199;-72
2023/08/18 03:04:04;;;;;;;5.10;3.90;;;;;;;;;;5092139;28;20206;-73
2023/08/18 03:06:32;;;;;;;5.28;3.55;;;;;;;;;;5091756;28;20203;-72
2023/08/18 03:08:58;;;;;;;6.78;3.80;;;;;;;;;;5091370;28;20210;-72
2023/08/18 03:11:24;;;;;;;5.43;4.05;;;;;;;;;;5091566;28;20199;-72
2023/08/18 03:13:51;;;;;;;6.63;3.70;;;;;;;;;;5091232;28;20216;-72
2023/08/18 03:16:17;;;;;;;3.97;3.70;;;;;;;;;;5091612;28;20200;-72
2023/08/18 03:18:44;;;;;;;6.47;3.55;;;;;;;;;;5091442;28;20215;-73
2023/08/18 03:21:10;;;;;;;5.97;3.83;;;;;;;;;;5091476;28;20207;-72
2023/08/18 03:23:38;;;;;;;3.92;3.50;;;;;;;;;;5091030;28;20234;-72
2023/08/18 03:26:05;;;;;;;4.32;3.92;;;;;;;;;;5091760;28;20203;-72
2023/08/18 03:28:32;;;;;;;4.38;3.88;;;;;;;;;;5091310;28;20674;-72
2023/08/18 03:30:59;;;;;;;8.85;3.78;;;;;;;;;;5091316;28;20273;-72
2023/08/18 03:33:27;;;;;;;8.95;3.58;;;;;;;;;;5091087;28;20764;-72
2023/08/18 03:35:53;;;;;;;3.35;3.05;;;;;;;;;;5092476;28;20574;-72
2023/08/18 03:38:19;;;;;;;3.85;3.45;;;;;;;;;;5095144;28;20200;-72
2023/08/18 03:40:47;;;;;;;5.47;3.50;;;;;;;;;;5095476;28;20200;-72
2023/08/18 03:43:13;;;;;;;4.13;3.13;;;;;;;;;;5095123;28;20222;-72
2023/08/18 03:45:39;;;;;;;7.75;3.70;;;;;;;;;;5095265;28;20226;-72
2023/08/18 03:48:06;;;;;;;5.47;3.63;;;;;;;;;;5095430;28;20200;-72
2023/08/18 03:50:32;;;;;;;3.78;3.42;;;;;;;;;;5095145;28;20200;-72
2023/08/18 03:52:58;;;;;;;3.50;3.13;;;;;;;;;;5094860;28;20223;-72
2023/08/18 03:55:25;;;;;;;3.80;3.30;;;;;;;;;;5095333;28;20211;-72
2023/08/18 03:57:52;;;;;;;4.75;3.35;;;;;;;;;;5095189;28;20204;-72
2023/08/18 04:00:19;;;;;;;4.45;3.30;;;;;;;;;;5095006;28;20224;-72
2023/08/18 04:02:45;;;;;;;5.50;3.20;;;;;;;;;;5094560;28;20699;-72
2023/08/18 04:05:12;;;;;;;8.63;3.35;;;;;;;;;;5094976;28;20192;-72
2023/08/18 04:07:38;;;;;;;6.40;3.65;;;;;;;;;;5094960;28;20218;-72
2023/08/18 04:10:04;;;;;;;4.78;3.50;;;;;;;;;;5095003;28;20196;-72
2023/08/18 04:12:31;;;;;;;6.63;3.40;;;;;;;;;;5094785;28;20227;-72
2023/08/18 04:14:58;;;;;;;6.60;3.10;;;;;;;;;;5094722;28;20207;-72
2023/08/18 04:17:24;;;;;;;5.65;3.63;;;;;;;;;;5094722;28;20222;-67
2023/08/18 04:19:51;;;;;;;5.65;3.30;;;;;;;;;;5094384;28;20211;-67
2023/08/18 04:22:17;;;;;;;3.78;3.33;;;;;;;;;;5094396;28;20245;-67
2023/08/18 04:24:43;;;;;;;3.28;2.95;;;;;;;;;;5094619;28;20691;-67
2023/08/18 04:27:10;;;;;;;7.00;3.47;;;;;;;;;;5094709;28;20195;-67
2023/08/18 04:29:36;;;;;;;4.25;2.90;;;;;;;;;;5094496;28;20357;-67
2023/08/18 04:32:04;;;;;;;3.60;2.75;;;;;;;;;;5094015;28;20219;-67
2023/08/18 04:34:30;;;;;;;4.85;3.17;;;;;;;;;;5094302;28;20808;-67
2023/08/18 04:36:57;;;;;;;3.50;3.20;;;;;;;;;;5094460;28;20227;-67
2023/08/18 04:39:23;;;;;;;4.40;3.53;;;;;;;;;;5094346;28;20208;-67
2023/08/18 04:41:49;;;;;;;3.70;2.88;;;;;;;;;;5093898;28;20265;-67
2023/08/18 04:44:15;;;;;;;3.80;3.10;;;;;;;;;;5094278;28;20196;-67
2023/08/18 04:46:42;;;;;;;5.43;3.53;;;;;;;;;;5093963;28;20207;-67
2023/08/18 04:49:09;;;;;;;8.25;3.65;;;;;;;;;;5093926;28;20200;-67
2023/08/18 04:51:36;;;;;;;3.35;3.17;;;;;;;;;;5093862;28;20196;-67
2023/08/18 04:54:02;;;;;;;5.30;3.38;;;;;;;;;;5094037;28;20196;-67
2023/08/18 04:56:28;;;;;;;5.05;3.13;;;;;;;;;;5093866;28;20191;-67
2023/08/18 04:58:55;;;;;;;5.78;3.10;;;;;;;;;;5093741;28;20220;-67
2023/08/18 05:01:21;;;;;;;3.10;2.97;;;;;;;;;;5093905;28;20219;-67
2023/08/18 05:03:48;;;;;;;8.27;3.67;;;;;;;;;;5093421;28;20220;-67
2023/08/18 05:06:15;;;;;;;4.32;3.17;;;;;;;;;;5093987;28;20196;-67
2023/08/18 05:08:42;;;;;;;3.45;3.15;;;;;;;;;;5093791;28;20200;-67
2023/08/18 05:11:08;;;;;;;4.03;3.40;;;;;;;;;;5093655;28;20685;-67
2023/08/18 05:13:35;;;;;;;4.50;3.35;;;;;;;;;;5093256;28;20226;-67
2023/08/18 05:16:02;;;;;;;4.18;3.20;;;;;;;;;;5093402;28;20275;-67
2023/08/18 05:18:29;;;;;;;3.95;3.30;;;;;;;;;;5093755;28;20203;-67
2023/08/18 05:20:56;;;;;;;4.68;3.28;;;;;;;;;;5093472;28;20211;-67
2023/08/18 05:23:24;;;;;;;8.57;3.22;;;;;;;;;;5093363;28;20215;-67
2023/08/18 05:25:54;;;;;;;2.88;2.67;;;;;;;;;;5093383;28;20199;-67
2023/08/18 05:28:20;;;;;;;5.85;3.28;;;;;;;;;;5093440;28;20214;-67
2023/08/18 05:30:47;;;;;;;4.63;3.30;;;;;;;;;;5093805;28;20192;-67
2023/08/18 05:33:13;;;;;;;4.55;3.20;;;;;;;;;;5093228;28;20220;-67
2023/08/18 05:35:39;;;;;;;4.40;3.97;;;;;;;;;;5093437;28;20200;-67
2023/08/18 05:38:10;;;;;;;3.55;3.25;;;;;;;;;;5093357;28;20199;-67
2023/08/18 05:40:38;;;;;;;4.55;3.40;;;;;;;;;;5093245;28;20222;-67
2023/08/18 05:43:04;;;;;;;4.22;3.53;;;;;;;;;;5092647;28;20341;-67
2023/08/18 05:45:31;;;;;;;7.88;4.03;;;;;;;;;;5093395;28;20202;-68
2023/08/18 05:47:57;;;;;;;4.60;4.05;;;;;;;;;;5082502;28;20230;-69
2023/08/18 05:53:26;;;;;;;3.88;3.58;;;;;;;;;;5081756;28;20210;-67
2023/08/18 05:55:54;;;;;;;5.28;4.13;;;;;;;;;;5073327;28;20205;-66
2023/08/18 05:58:20;;;;;;;5.97;3.95;;;;;;;;;;5069251;28;20212;-66
2023/08/18 06:00:49;;;;;;;5.75;3.72;;;;;;;;;;5069231;28;20754;-66
2023/08/18 06:03:16;;;;;;;4.88;4.03;;;;;;;;;;5081992;28;20215;-66
2023/08/18 06:05:43;;;;;;;8.55;3.97;;;;;;;;;;5083735;28;20214;-66
2023/08/18 06:08:10;;;;;;;6.80;4.07;;;;;;;;;;5084191;28;20208;-66
2023/08/18 06:10:36;;;;;;;8.23;3.92;;;;;;;;;;5083119;28;20211;-66
2023/08/18 06:13:04;;;;;;;7.80;4.13;;;;;;;;;;5080547;28;20766;-67
2023/08/18 06:15:30;;;;;;;9.00;4.15;;;;;;;;;;5080120;28;20210;-67
2023/08/18 06:17:56;;;;;;;4.90;3.88;;;;;;;;;;5084364;28;20774;-66
2023/08/18 06:20:22;;;;;;;5.68;4.07;;;;;;;;;;5080236;28;20434;-67
2023/08/18 06:22:49;;;;;;;5.65;3.78;;;;;;;;;;5073207;28;20236;-67
2023/08/18 06:25:15;;;;;;;7.63;3.72;;;;;;;;;;5079292;28;20208;-67
2023/08/18 06:27:41;;;;;;;8.15;3.70;;;;;;;;;;5076774;28;20211;-67
2023/08/18 06:30:11;;;;;;;5.68;3.67;;;;;;;;;;5067093;28;20207;-67
2023/08/18 06:32:37;;;;;;;5.85;3.42;;;;;;;;;;5080043;28;20255;-68
2023/08/18 06:35:03;;;;;;;6.57;4.20;;;;;;;;;;5084300;28;20580;-67
2023/08/18 06:37:30;;;;;;;4.85;3.47;;;;;;;;;;5073276;28;20208;-66
2023/08/18 06:39:56;;;;;;;10.52;4.18;;;;;;;;;;5075213;28;20229;-66
2023/08/18 06:42:23;;;;;;;6.20;4.05;;;;;;;;;;5083266;28;20258;-66
2023/08/18 06:44:49;;;;;;;8.45;4.00;;;;;;;;;;5075476;28;20208;-66
2023/08/18 06:47:16;;;;;;;8.27;3.85;;;;;;;;;;5084005;28;20204;-66
2023/08/18 06:49:43;;;;;;;4.03;3.50;;;;;;;;;;5083661;28;20223;-66
2023/08/18 06:52:09;;;;;;;5.07;3.13;;;;;;;;;;5074906;28;20220;-67
2023/08/18 06:54:35;;;;;;;5.88;3.65;;;;;;;;;;5080229;28;20204;-66
2023/08/18 06:57:02;;;;;;;6.95;3.65;;;;;;;;;;5076141;28;20219;-66
2023/08/18 06:59:28;;;;;;;8.77;3.47;;;;;;;;;;5078120;28;20224;-66
2023/08/18 07:01:54;;;;;;;5.10;3.50;;;;;;;;;;5074702;28;20224;-66
2023/08/18 07:04:22;;;;;;;8.77;3.60;;;;;;;;;;5085095;28;20274;-66
2023/08/18 07:06:48;;;;;;;3.70;3.30;;;;;;;;;;5084251;28;20211;-66
2023/08/18 07:09:14;;;;;;;7.32;3.45;;;;;;;;;;5074145;28;20735;-66
2023/08/18 07:11:41;;;;;;;9.10;3.15;;;;;;;;;;5084517;28;20203;-66
2023/08/18 07:14:07;;;;;;;3.55;3.22;;;;;;;;;;5073961;28;20226;-66
2023/08/18 07:16:33;;;;;;;4.75;3.22;;;;;;;;;;5074951;28;20208;-66
2023/08/18 07:18:59;;;;;;;4.70;3.22;;;;;;;;;;5079178;28;20234;-66
2023/08/18 07:21:27;;;;;;;5.25;3.35;;;;;;;;;;5077550;28;20216;-66
2023/08/18 07:23:53;;;;;;;6.82;2.92;;;;;;;;;;5080203;28;20223;-66
2023/08/18 07:26:20;;;;;;;6.32;2.70;;;;;;;;;;5080792;28;20215;-66
2023/08/18 07:28:46;;;;;;;7.88;3.33;;;;;;;;;;5078407;28;20211;-66
2023/08/18 07:31:12;;;;;;;8.45;3.15;;;;;;;;;;5080334;28;20200;-66
2023/08/18 07:33:38;;;;;;;8.15;3.20;;;;;;;;;;5084443;28;20227;-66
2023/08/18 07:36:05;;;;;;;3.33;2.85;;;;;;;;;;5081746;28;20226;-66
2023/08/18 07:38:35;;;;;;;5.07;2.58;;;;;;;;;;5070540;28;20481;-66
2023/08/18 07:41:01;;;;;;;3.90;2.90;;;;;;;;;;5084690;28;20303;-66
2023/08/18 07:43:28;;;;;;;4.32;2.90;;;;;;;;;;5079260;28;20331;-66
2023/08/18 07:45:54;;;;;;;3.42;2.58;;;;;;;;;;5074275;28;20223;-66
2023/08/18 07:48:20;;;;;;;7.80;2.83;;;;;;;;;;5084205;28;20203;-66
2023/08/18 07:50:47;;;;;;;5.95;2.80;;;;;;;;;;5077657;28;20208;-66
2023/08/18 07:53:13;;;;;;;4.30;2.53;;;;;;;;;;5070876;28;20228;-67
2023/08/18 07:55:41;;;;;;;2.40;2.20;;;;;;;;;;5076667;28;20664;-67
2023/08/18 07:58:07;;;;;;;5.35;2.40;;;;;;;;;;5079439;28;20208;-67
2023/08/18 08:00:33;;;;;;;3.78;2.42;;;;;;;;;;5075349;28;20217;-68
2023/08/18 08:03:00;;;;;;;5.43;2.50;;;;;;;;;;5081265;28;20224;-68
2023/08/18 08:05:26;;;;;;;2.97;2.35;;;;;;;;;;5067732;28;20215;-68
2023/08/18 08:07:52;;;;;;;2.75;2.15;;;;;;;;;;5066892;28;20525;-68
2023/08/18 08:10:18;;;;;;;3.92;2.45;;;;;;;;;;5067438;28;20212;-67
2023/08/18 08:12:48;;;;;;;5.13;2.88;;;;;;;;;;5066265;28;20234;-67
2023/08/18 08:15:14;;;;;;;10.15;2.63;;;;;;;;;;5066885;28;20204;-67
2023/08/18 08:17:40;;;;;;;4.63;2.50;;;;;;;;;;5067395;28;20215;-68
2023/08/18 08:20:14;;;;;;;4.50;2.30;;;;;;;;;;5067145;28;20220;-68
2023/08/18 08:22:40;;;;;;;9.98;2.47;;;;;;;;;;5066759;28;20228;-67
2023/08/18 08:25:07;;;;;;;2.42;2.22;;;;;;;;;;5069566;28;20457;-67
2023/08/18 08:27:34;;;;;;;8.23;2.40;;;;;;;;;;5070491;28;20215;-66
2023/08/18 08:30:01;;;;;;;5.63;2.10;;;;;;;;;;5070091;28;20622;-67
2023/08/18 08:32:28;;;;;;;3.97;2.08;;;;;;;;;;5069825;28;20223;-66
2023/08/18 08:34:54;;;;;;;2.20;1.80;;;;;;;;;;5070969;28;20250;-67
2023/08/18 08:37:20;;;;;;;3.55;1.60;;;;;;;;;;5069660;28;20204;-67
2023/08/18 08:39:47;;;;;;;3.65;1.77;;;;;;;;;;5069993;28;20230;-67
2023/08/18 08:42:13;;;;;;;2.50;1.40;;;;;;;;;;5064643;28;20223;-68
2023/08/18 08:44:39;;;;;;;4.22;2.10;;;;;;;;;;5070280;28;20599;-67
2023/08/18 08:47:07;;;;;;;3.28;1.80;;;;;;;;;;5070013;28;20204;-68
2023/08/18 08:49:35;;;;;;;2.30;1.70;;;;;;;;;;5070464;28;20211;-67
2023/08/18 08:52:03;;;;;;;1.90;1.70;;;;;;;;;;5070073;28;20228;-68
2023/08/18 08:54:30;;;;;;;3.03;1.80;;;;;;;;;;5070065;28;20231;-67
2023/08/18 08:56:57;;;;;;;13.27;3.20;;;;;;;;;;5069511;28;20743;-68
2023/08/18 08:59:23;;;;;;;8.20;2.47;;;;;;;;;;5069506;28;20207;-68
2023/08/18 09:01:51;;;;;;;6.45;1.67;;;;;;;;;;5069623;28;20231;-67
2023/08/18 09:04:19;;;;;;;3.33;1.73;;;;;;;;;;5064812;28;20212;-68
2023/08/18 09:06:46;;;;;;;3.10;1.90;;;;;;;;;;5068940;28;20655;-67
2023/08/18 09:09:14;;;;;;;4.68;2.00;;;;;;;;;;5068607;28;20211;-67
2023/08/18 09:11:45;;;;;;;4.72;2.20;;;;;;;;;;5069361;28;20204;-68
2023/08/18 09:14:11;;;;;;;5.28;2.53;;;;;;;;;;5069793;28;20204;-68
2023/08/18 09:16:38;;;;;;;5.32;1.88;;;;;;;;;;5069397;28;20212;-67
2023/08/18 09:19:04;;;;;;;3.63;1.83;;;;;;;;;;5067193;28;20208;-68
2023/08/18 09:21:33;;;;;;;1.75;1.65;;;;;;;;;;5061920;28;20220;-68
2023/08/18 09:24:00;;;;;;;2.75;1.77;;;;;;;;;;5066752;28;20243;-68
2023/08/18 09:26:27;;;;;;;1.83;1.73;;;;;;;;;;5068646;28;20675;-68
2023/08/18 09:28:53;;;;;;;3.30;1.70;;;;;;;;;;5069901;28;20212;-66
2023/08/18 09:31:20;;;;;;;5.60;1.70;;;;;;;;;;5069283;28;20207;-66
2023/08/18 09:33:46;;;;;;;3.08;1.77;;;;;;;;;;5068927;28;20720;-66
2023/08/18 09:36:12;;;;;;;2.65;1.70;;;;;;;;;;5069224;28;20208;-66
2023/08/18 09:38:41;;;;;;;2.33;1.70;;;;;;;;;;5068183;28;20714;-66
2023/08/18 09:41:07;;;;;;;3.60;1.80;;;;;;;;;;5069442;28;20256;-66
2023/08/18 09:43:33;;;;;;;4.03;1.60;;;;;;;;;;5068597;28;20231;-66
2023/08/18 09:46:03;;;;;;;3.28;1.52;;;;;;;;;;5069016;28;20235;-66
2023/08/18 09:48:34;;;;;;;3.42;1.85;;;;;;;;;;5069094;28;20204;-66
2023/08/18 09:51:00;;;;;;;2.42;1.70;;;;;;;;;;5068671;28;20212;-66
2023/08/18 09:53:30;;;;;;;2.58;1.30;;;;;;;;;;5068450;28;20310;-66
2023/08/18 09:55:59;;;;;;;3.67;1.88;;;;;;;;;;5068460;28;20438;-76
2023/08/18 09:58:29;;;;;;;3.67;1.50;;;;;;;;;;5068636;28;20204;-74
2023/08/18 10:00:56;;;;;;;2.30;1.50;;;;;;;;;;5067993;28;20257;-74
2023/08/18 10:03:25;;;;;;;1.50;1.48;;;;;;;;;;5070112;28;20227;-75
2023/08/18 10:05:51;;;;;;;4.82;1.60;;;;;;;;;;5068961;28;20293;-74
2023/08/18 10:08:18;;;;;;;3.78;1.80;;;;;;;;;;5068078;28;20695;-72
2023/08/18 10:10:44;;;;;;;4.07;1.67;;;;;;;;;;5068494;28;20204;-73
2023/08/18 10:13:13;;;;;;;1.80;1.70;;;;;;;;;;5067461;28;20628;-73
2023/08/18 10:15:39;;;;;;;5.25;1.50;;;;;;;;;;5068538;28;20662;-73
2023/08/18 10:18:09;;;;;;;3.03;1.73;;;;;;;;;;5067448;28;20215;-74
2023/08/18 10:20:35;;;;;;;6.20;1.60;;;;;;;;;;5062807;28;20223;-74
2023/08/18 10:23:02;;;;;;;2.95;1.50;;;;;;;;;;5067274;28;20228;-73
2023/08/18 10:25:29;;;;;;;1.73;1.63;;;;;;;;;;5067742;28;20208;-73
2023/08/18 10:27:55;;;;;;;5.00;1.60;;;;;;;;;;5067815;28;20246;-74
2023/08/18 10:30:27;;;;;;;2.20;1.60;;;;;;;;;;5067707;28;20215;-74
2023/08/18 10:32:54;;;;;;;2.45;1.27;;;;;;;;;;5067998;28;20293;-73
2023/08/18 10:35:21;;;;;;;2.53;1.30;;;;;;;;;;5068607;28;20204;-73
2023/08/18 10:37:49;;;;;;;2.40;1.52;;;;;;;;;;5068998;28;20664;-75
2023/08/18 10:40:22;;;;;;;2.63;1.50;;;;;;;;;;5068834;28;20228;-75
2023/08/18 10:42:48;;;;;;;3.45;1.60;;;;;;;;;;5068448;28;20219;-72
2023/08/18 10:45:23;;;;;;;2.97;1.40;;;;;;;;;;5068150;28;20761;-73
2023/08/18 10:47:50;;;;;;;2.58;1.67;;;;;;;;;;5067602;28;20203;-74
2023/08/18 10:50:18;;;;;;;3.42;1.40;;;;;;;;;;5068042;28;20212;-74
2023/08/18 10:52:44;;;;;;;2.63;1.67;;;;;;;;;;5067350;28;20273;-73
2023/08/18 10:55:10;;;;;;;5.90;1.50;;;;;;;;;;5067431;28;20652;-72
2023/08/18 10:57:37;;;;;;;2.03;1.10;;;;;;;;;;5067499;28;20199;-72
2023/08/18 11:00:05;;;;;;;1.95;1.27;;;;;;;;;;5067961;28;20269;-74
2023/08/18 11:02:32;;;;;;;3.50;1.55;;;;;;;;;;5067955;28;20643;-75
2023/08/18 11:05:00;;;;;;;1.45;1.35;;;;;;;;;;5068897;28;20219;-75
2023/08/18 11:07:27;;;;;;;3.63;1.63;;;;;;;;;;5067854;28;20214;-75
2023/08/18 11:09:53;;;;;;;3.72;1.77;;;;;;;;;;5068036;28;20674;-74
2023/08/18 11:12:19;;;;;;;2.45;1.33;;;;;;;;;;5061797;28;20227;-74
2023/08/18 11:14:46;;;;;;;3.15;1.20;;;;;;;;;;5067646;28;20208;-74
2023/08/18 11:17:12;;;;;;;4.97;1.33;;;;;;;;;;5067416;28;20220;-74
2023/08/18 11:19:39;;;;;;;3.88;1.08;;;;;;;;;;5067854;28;20311;-74
2023/08/18 11:22:06;;;;;;;3.55;1.10;;;;;;;;;;5067242;28;20318;-75
2023/08/18 11:24:34;;;;;;;1.67;1.10;;;;;;;;;;5065618;28;20204;-75
2023/08/18 11:27:01;;;;;;;2.47;1.17;;;;;;;;;;5066732;28;20207;-74
2023/08/18 11:29:27;;;;;;;1.25;1.05;;;;;;;;;;5067599;28;20207;-73
2023/08/18 11:31:54;;;;;;;1.95;1.10;;;;;;;;;;5067646;28;20231;-74
2023/08/18 11:34:21;;;;;;;3.13;1.40;;;;;;;;;;5067838;28;20276;-75
2023/08/18 11:36:47;;;;;;;3.30;1.00;;;;;;;;;;5067869;28;20292;-74
2023/08/18 11:39:15;;;;;;;2.97;1.20;;;;;;;;;;5066890;28;20207;-74
2023/08/18 11:41:42;;;;;;;1.00;1.00;;;;;;;;;;5066720;28;20224;-74
2023/08/18 11:44:09;;;;;;;1.30;1.20;;;;;;;;;;5067770;28;20229;-76
2023/08/18 11:46:36;;;;;;;2.50;1.13;;;;;;;;;;5067754;28;20200;-75
2023/08/18 11:49:03;;;;;;;2.05;1.23;;;;;;;;;;5068852;28;20222;-76
2023/08/18 11:51:30;;;;;;;1.55;1.00;;;;;;;;;;5061167;28;20208;-74
2023/08/18 11:53:56;;;;;;;1.10;0.98;;;;;;;;;;5066903;28;20577;-75
2023/08/18 11:56:26;;;;;;;3.33;1.10;;;;;;;;;;5067346;28;20210;-74
2023/08/18 11:58:52;;;;;;;2.65;1.27;;;;;;;;;;5068379;28;20555;-75
2023/08/18 12:01:18;;;;;;;5.47;1.20;;;;;;;;;;5070763;28;20444;-76
2023/08/18 12:03:54;;;;;;;3.60;1.17;;;;;;;;;;5071543;28;20224;-76
2023/08/18 12:06:23;;;;;;;1.77;1.15;;;;;;;;;;5071100;28;20210;-75
2023/08/18 12:08:49;;;;;;;1.33;1.02;;;;;;;;;;5071348;28;20240;-74
2023/08/18 12:11:15;;;;;;;1.20;0.90;;;;;;;;;;5076974;28;20789;-74
2023/08/18 12:13:43;;;;;;;2.60;1.00;;;;;;;;;;5076131;28;20227;-75
2023/08/18 12:16:09;;;;;;;2.33;1.20;;;;;;;;;;5070411;28;20220;-75
2023/08/18 12:18:35;;;;;;;2.80;1.02;;;;;;;;;;5070922;28;20204;-75
2023/08/18 12:21:02;;;;;;;2.40;1.20;;;;;;;;;;5070236;28;20223;-75
2023/08/18 12:23:28;;;;;;;1.08;0.93;;;;;;;;;;5070059;28;20228;-74
2023/08/18 12:25:54;;;;;;;3.97;1.15;;;;;;;;;;5070679;28;20675;-75
2023/08/18 12:28:21;;;;;;;1.40;1.30;;;;;;;;;;5070975;28;20207;-74
2023/08/18 12:30:48;;;;;;;2.10;1.13;;;;;;;;;;5071443;28;20216;-75
2023/08/18 12:33:15;;;;;;;1.20;1.10;;;;;;;;;;5070648;28;20224;-74
2023/08/18 12:35:41;;;;;;;2.50;1.15;;;;;;;;;;5071861;28;20216;-75
2023/08/18 12:38:08;;;;;;;5.88;1.38;;;;;;;;;;5070395;28;20234;-74
2023/08/18 12:40:34;;;;;;;3.55;1.30;;;;;;;;;;5070495;28;20204;-72
2023/08/18 12:43:01;;;;;;;3.85;1.42;;;;;;;;;;5069787;28;20400;-74
2023/08/18 12:45:28;;;;;;;4.03;1.10;;;;;;;;;;5070912;28;20253;-74
2023/08/18 12:47:56;;;;;;;2.70;1.15;;;;;;;;;;5070534;28;20208;-74
2023/08/18 12:50:22;;;;;;;1.38;1.20;;;;;;;;;;5070239;28;20200;-75
2023/08/18 12:52:49;;;;;;;2.53;1.17;;;;;;;;;;5069637;28;20232;-74
2023/08/18 12:55:15;;;;;;;1.27;1.17;;;;;;;;;;5070304;28;20211;-74
2023/08/18 12:57:43;;;;;;;3.63;1.33;;;;;;;;;;5070073;28;20220;-74
2023/08/18 13:00:11;;;;;;;2.90;1.10;;;;;;;;;;5069933;28;20250;-75
2023/08/18 13:02:37;;;;;;;3.38;1.33;;;;;;;;;;5069165;28;20224;-74
2023/08/18 13:05:05;;;;;;;3.60;1.10;;;;;;;;;;5069799;28;20208;-74
2023/08/18 13:07:31;;;;;;;1.02;1.00;;;;;;;;;;5069534;28;20289;-74
2023/08/18 13:09:58;;;;;;;2.33;1.00;;;;;;;;;;5069640;28;20265;-74
2023/08/18 13:12:24;;;;;;;3.15;1.17;;;;;;;;;;5070740;28;20220;-75
2023/08/18 13:14:50;;;;;;;7.13;1.23;;;;;;;;;;5069721;28;20204;-73
2023/08/18 13:17:16;;;;;;;6.13;1.40;;;;;;;;;;5068698;28;20215;-74
2023/08/18 13:19:43;;;;;;;1.48;1.23;;;;;;;;;;5070234;28;20231;-74
2023/08/18 13:22:10;;;;;;;7.28;1.48;;;;;;;;;;5069181;28;20683;-73
2023/08/18 13:24:37;;;;;;;3.63;1.38;;;;;;;;;;5069406;28;20207;-74
2023/08/18 13:27:03;;;;;;;2.10;1.10;;;;;;;;;;5069305;28;20208;-74
2023/08/18 13:29:30;;;;;;;1.02;1.02;;;;;;;;;;5069456;28;20208;-74
2023/08/18 13:31:56;;;;;;;2.55;1.40;;;;;;;;;;5068933;28;20809;-74
2023/08/18 13:34:22;;;;;;;2.53;1.30;;;;;;;;;;5068675;28;20203;-73
2023/08/18 13:36:49;;;;;;;2.33;1.50;;;;;;;;;;5069145;28;20664;-75
2023/08/18 13:39:19;;;;;;;2.88;1.45;;;;;;;;;;5068713;28;20212;-75
2023/08/18 13:41:45;;;;;;;3.50;1.52;;;;;;;;;;5069338;28;20591;-73
2023/08/18 13:44:11;;;;;;;6.60;1.30;;;;;;;;;;5069924;28;20218;-74
2023/08/18 13:46:37;;;;;;;4.15;1.77;;;;;;;;;;5070035;28;20574;-73
2023/08/18 13:49:04;;;;;;;3.92;1.73;;;;;;;;;;5069604;28;20208;-74
2023/08/18 13:51:30;;;;;;;3.95;1.30;;;;;;;;;;5070535;28;20204;-74
2023/08/18 13:53:56;;;;;;;3.95;1.30;;;;;;;;;;5070337;28;20216;-75
2023/08/18 13:56:24;;;;;;;3.50;1.60;;;;;;;;;;5069527;28;20211;-75
2023/08/18 13:58:50;;;;;;;2.40;1.27;;;;;;;;;;5069430;28;20204;-74
2023/08/18 14:01:17;;;;;;;2.10;1.42;;;;;;;;;;5069428;28;20204;-75
2023/08/18 14:03:43;;;;;;;6.40;1.50;;;;;;;;;;5069571;28;20669;-75
2023/08/18 14:06:10;;;;;;;2.72;1.13;;;;;;;;;;5069986;28;20215;-74
2023/08/18 14:08:36;;;;;;;1.40;1.30;;;;;;;;;;5069323;28;20204;-75
2023/08/18 14:11:03;;;;;;;3.28;1.40;;;;;;;;;;5069310;28;20216;-75
2023/08/18 14:16:33;;;;;;;2.80;1.25;;;;;;;;;;5061246;28;20673;-73
2023/08/18 14:19:00;;;;;;;5.18;1.63;;;;;;;;;;5071714;28;20215;-73
2023/08/18 14:21:26;;;;;;;7.28;1.40;;;;;;;;;;5071579;28;20219;-73
2023/08/18 14:23:52;;;;;;;4.15;1.40;;;;;;;;;;5075149;28;20621;-74
2023/08/18 14:26:20;;;;;;;2.78;1.40;;;;;;;;;;5070076;28;20219;-73
2023/08/18 14:31:28;;;;;;;2.75;1.50;;;;;;;;;;5157753;23;20234;-72
2023/08/18 14:33:56;;;;;;;5.32;1.33;;;;;;;;;;4956346;28;20219;-75
2023/08/18 14:38:57;;;;;;;6.45;1.40;;;;;;;;;;5452755;23;20738;-72
2023/08/18 14:41:24;;;;;;;2.75;1.35;;;;;;;;;;4947983;28;20220;-71
2023/08/18 14:43:50;;;;;;;1.40;1.27;;;;;;;;;;4950771;28;20246;-70
2023/08/18 14:46:16;;;;;;;2.75;1.60;;;;;;;;;;4950155;28;20219;-71
2023/08/18 14:48:43;;;;;;;3.60;1.85;;;;;;;;;;4949827;28;20678;-72
2023/08/18 14:51:10;;;;;;;2.47;1.50;;;;;;;;;;4942922;28;20225;-73